AirNav   TITAN Aviation Fuels
 
 1174 users online  

33LS Our Lady of Lourdes Heart Hospital Heliport
Lafayette, Louisiana, USA

GOING TO LAFAYETTE?


FAA INFORMATION EFFECTIVE 08 SEPTEMBER 2022

Location

FAA Identifier: 33LS
Lat/Long: 30-10-24.3300N 092-01-34.5500W
30-10.405500N 092-01.575833W
30.1734250,-92.0262639
(estimated)
Elevation: 43 ft. / 13 m (estimated)
From city: 6 miles N of LAFAYETTE, LA
Time zone: UTC -5 (UTC -6 during Standard Time)
Zip code: 70508

Heliport Operations

Heliport use: Private use. Permission required prior to landing
Activation date: 08/2009
Control tower: no
ARTCC: HOUSTON CENTER
FSS: DE RIDDER FLIGHT SERVICE STATION
Attendance: UNATNDD
Segmented circle: no
Lights: SS-SR

Heliport Communications

WX ASOS at LFT (2.8 nm NE): 134.05 ((337)262-2757)
WX ASOS at ARA (11 nm SE): 133.325 (337-365-0128)
WX AWOS-3 at IYA (12 nm S): 118.875 (337-892-0526)

Nearby radio navigation aids

VOR radial/distance  VOR name  Freq  Var
LFTr232/2.1LAFAYETTE VORTAC109.8003E
LLAr027/35.5WHITE LAKE VOR/DME114.9504E

 
NDB name  Hdg/Dist  Freq  Var  ID
ABBEVILLE035/8.423002EBNZ -... -. --..
LAFFS218/9.337503ELF .-.. ..-.
DURALDE135/31.826302EECY . -.-. -.--

Heliport Services

Runway Information

Helipad H1

Dimensions: 40 x 40 ft. / 12 x 12 m
Surface: concrete
Runway edge lights: PERI
Latitude: 30-10.405500N
Longitude: 092-01.575833W
Elevation: 43.0 ft.
Traffic pattern: leftleft

Heliport Ownership and Management from official FAA records

Ownership: Privately-owned
Owner: OUR LADY OF LOURDES HEART HOSPITAL
1105 KALISTE SALOOM RD
LAFAYETTE, LA 70508
Phone (337) 470-1036
Manager: MICHAEL RICHARD
1105 KALISTE SALOOM RD
LAFAYETTE, LA 70508
Phone (337) 470-1036
MICHAEL RICHARD

Additional Remarks

FOR CD CTC LAFAYETTE APCH AT 337-262-2729, WHEN APCH CLSD CTC HOUSTON ARTCC AT 281-230-5622.

Instrument Procedures

There are no published instrument procedures at 33LS.

Some nearby airports with instrument procedures:

KLFT - Lafayette Regional Airport/Paul Fournet Field (3 nm NE)
KARA - Acadiana Regional Airport (11 nm SE)
KIYA - Abbeville Chris Crusta Memorial Airport (12 nm S)
KOPL - St Landry Parish Airport-Ahart Field (23 nm N)
4R7 - Eunice Airport (27 nm NW)
 
Loc | Ops | Rwys | IFR | FBO | Links
Com | Nav | Svcs | Stats | Notes
Aerial photo
No photo
 
Sectional chart

 
Airport distance calculator
Flying to Our Lady of Lourdes Heart Hospital Heliport? Find the distance to fly.

From to 33LS

Sunrise and sunset
Times for 28-Sep-2022
 Local
(UTC-5)
 Zulu
(UTC)
Morning civil twilight06:3711:37
Sunrise07:0112:01
Sunset18:5723:57
Evening civil twilight19:2100:21

Current date and time
Zulu (UTC)  29-Sep-2022 03:08:50
Local (UTC-5)  28-Sep-2022 22:08:50
 
METAR
KLFT 
2nm NE 
290253Z 02005KT 10SM CLR 19/10 A3016 RMK AO2 SLP213 T01890100 51012
KARA 
11nm SE 
290253Z AUTO 01008KT 10SM CLR 19/09 A3015 RMK AO2 SLP210 T01940089 51012
KIYA 
12nm S 
290255Z AUTO 36005KT 10SM CLR 19/07 A3016 RMK AO2 T01900067
K0R3 
12nm S 
118.875
No observation available
TAF
KLFT 
2nm NE 
281723Z 2818/2918 04010G20KT P6SM SKC FM290100 01008KT P6SM SKC
KARA 
11nm SE 
281723Z 2818/2918 05010G25KT P6SM SKC FM290100 01008KT P6SM SKC
NOTAMs
Click for the latest NOTAMs
NOTAMs are issued by the DoD/FAA and will open in a separate window not controlled by AirNav.

 

 
 

Would you like to see your business listed on this page?

 If your business provides an interesting product or service to pilots, flight crews, aircraft, or users of the Our Lady of Lourdes Heart Hospital Heliport, you should consider listing it here.  To start the listing process, click on the button below
 
Add a business
 

Other Pages about Our Lady of Lourdes Heart Hospital Heliport

Update a link
 
Copyright © AirNav, LLC. All rights reserved. Privacy Policy  Contact